sensor_id;sensor_type;location;lat;lon;timestamp;temperature;humidity
58983;DHT22;44771;49.982;8.560;2023-05-21T00:04:41;14.70;99.90
58983;DHT22;44771;49.982;8.560;2023-05-21T00:09:44;14.70;99.90
58983;DHT22;44771;49.982;8.560;2023-05-21T00:14:46;14.60;99.90
58983;DHT22;44771;49.982;8.560;2023-05-21T00:19:47;14.60;99.90
58983;DHT22;44771;49.982;8.560;2023-05-21T00:24:51;14.60;99.90
58983;DHT22;44771;49.982;8.560;2023-05-21T00:29:52;14.50;99.90
58983;DHT22;44771;49.982;8.560;2023-05-21T00:34:54;14.50;99.90
58983;DHT22;44771;49.982;8.560;2023-05-21T00:39:58;14.60;99.90
58983;DHT22;44771;49.982;8.560;2023-05-21T00:45:03;14.50;99.90
58983;DHT22;44771;49.982;8.560;2023-05-21T00:50:06;14.40;99.90
58983;DHT22;44771;49.982;8.560;2023-05-21T00:55:10;14.40;99.90
58983;DHT22;44771;49.982;8.560;2023-05-21T01:00:13;14.50;99.90
58983;DHT22;44771;49.982;8.560;2023-05-21T01:05:15;14.40;99.90
58983;DHT22;44771;49.982;8.560;2023-05-21T01:10:21;14.40;99.90
58983;DHT22;44771;49.982;8.560;2023-05-21T01:15:24;14.40;99.90
58983;DHT22;44771;49.982;8.560;2023-05-21T01:20:27;14.40;99.90
58983;DHT22;44771;49.982;8.560;2023-05-21T01:25:31;14.40;99.90
58983;DHT22;44771;49.982;8.560;2023-05-21T01:30:33;14.40;99.90
58983;DHT22;44771;49.982;8.560;2023-05-21T01:35:38;14.40;99.90
58983;DHT22;44771;49.982;8.560;2023-05-21T01:40:52;14.40;99.90
58983;DHT22;44771;49.982;8.560;2023-05-21T01:45:56;14.40;99.90
58983;DHT22;44771;49.982;8.560;2023-05-21T01:51:01;14.50;99.90
58983;DHT22;44771;49.982;8.560;2023-05-21T01:56:05;14.40;99.90
58983;DHT22;44771;49.982;8.560;2023-05-21T02:01:07;14.40;99.90
58983;DHT22;44771;49.982;8.560;2023-05-21T02:06:09;14.40;99.90
58983;DHT22;44771;49.982;8.560;2023-05-21T02:11:12;14.40;99.90
58983;DHT22;44771;49.982;8.560;2023-05-21T02:16:14;14.40;99.90
58983;DHT22;44771;49.982;8.560;2023-05-21T02:21:16;14.40;99.90
58983;DHT22;44771;49.982;8.560;2023-05-21T02:26:19;14.30;99.90
58983;DHT22;44771;49.982;8.560;2023-05-21T02:31:21;14.30;99.90
58983;DHT22;44771;49.982;8.560;2023-05-21T02:36:23;14.30;99.90
58983;DHT22;44771;49.982;8.560;2023-05-21T02:41:26;14.30;99.90
58983;DHT22;44771;49.982;8.560;2023-05-21T02:46:28;14.30;99.90
58983;DHT22;44771;49.982;8.560;2023-05-21T02:51:30;14.30;99.90
58983;DHT22;44771;49.982;8.560;2023-05-21T02:56:33;14.40;99.90
58983;DHT22;44771;49.982;8.560;2023-05-21T03:01:35;14.40;99.90
58983;DHT22;44771;49.982;8.560;2023-05-21T03:06:37;14.40;99.90
58983;DHT22;44771;49.982;8.560;2023-05-21T03:11:41;14.40;99.90
58983;DHT22;44771;49.982;8.560;2023-05-21T03:16:43;14.50;99.90
58983;DHT22;44771;49.982;8.560;2023-05-21T03:21:45;14.50;99.90
58983;DHT22;44771;49.982;8.560;2023-05-21T03:26:51;14.50;99.90
58983;DHT22;44771;49.982;8.560;2023-05-21T03:31:53;14.60;99.90
58983;DHT22;44771;49.982;8.560;2023-05-21T03:36:55;14.50;99.90
58983;DHT22;44771;49.982;8.560;2023-05-21T03:41:58;14.60;99.90
58983;DHT22;44771;49.982;8.560;2023-05-21T03:46:59;14.60;99.90
58983;DHT22;44771;49.982;8.560;2023-05-21T03:52:01;14.50;99.90
58983;DHT22;44771;49.982;8.560;2023-05-21T03:57:05;14.50;99.90
58983;DHT22;44771;49.982;8.560;2023-05-21T04:02:07;14.50;99.90
58983;DHT22;44771;49.982;8.560;2023-05-21T04:07:08;14.50;99.90
58983;DHT22;44771;49.982;8.560;2023-05-21T04:12:14;14.50;99.90
58983;DHT22;44771;49.982;8.560;2023-05-21T04:17:15;14.60;99.90
58983;DHT22;44771;49.982;8.560;2023-05-21T04:22:17;14.60;99.90
58983;DHT22;44771;49.982;8.560;2023-05-21T04:27:21;14.60;99.90
58983;DHT22;44771;49.982;8.560;2023-05-21T04:32:23;14.60;99.90
58983;DHT22;44771;49.982;8.560;2023-05-21T04:37:25;14.60;99.90
58983;DHT22;44771;49.982;8.560;2023-05-21T04:42:28;14.80;99.90
58983;DHT22;44771;49.982;8.560;2023-05-21T04:47:30;14.90;99.90
58983;DHT22;44771;49.982;8.560;2023-05-21T04:52:31;14.90;99.90
58983;DHT22;44771;49.982;8.560;2023-05-21T04:57:34;14.90;99.90
58983;DHT22;44771;49.982;8.560;2023-05-21T05:02:36;15.00;99.90
58983;DHT22;44771;49.982;8.560;2023-05-21T05:07:38;15.10;99.90
58983;DHT22;44771;49.982;8.560;2023-05-21T05:12:41;15.00;99.90
58983;DHT22;44771;49.982;8.560;2023-05-21T05:17:43;15.10;99.90
58983;DHT22;44771;49.982;8.560;2023-05-21T05:22:45;15.10;99.90
58983;DHT22;44771;49.982;8.560;2023-05-21T05:27:48;15.10;99.90
58983;DHT22;44771;49.982;8.560;2023-05-21T05:32:53;15.10;99.90
58983;DHT22;44771;49.982;8.560;2023-05-21T05:37:54;15.20;99.90
58983;DHT22;44771;49.982;8.560;2023-05-21T05:42:58;15.30;99.90
58983;DHT22;44771;49.982;8.560;2023-05-21T05:47:59;15.30;99.90
58983;DHT22;44771;49.982;8.560;2023-05-21T05:53:01;15.20;99.90
58983;DHT22;44771;49.982;8.560;2023-05-21T05:58:04;15.30;99.90
58983;DHT22;44771;49.982;8.560;2023-05-21T06:03:06;15.40;99.90
58983;DHT22;44771;49.982;8.560;2023-05-21T06:08:08;15.40;99.90
58983;DHT22;44771;49.982;8.560;2023-05-21T06:13:11;15.60;99.90
58983;DHT22;44771;49.982;8.560;2023-05-21T06:18:13;15.70;99.90
58983;DHT22;44771;49.982;8.560;2023-05-21T06:23:15;15.80;99.90
58983;DHT22;44771;49.982;8.560;2023-05-21T06:28:23;15.90;99.90
58983;DHT22;44771;49.982;8.560;2023-05-21T06:33:25;16.20;99.90
58983;DHT22;44771;49.982;8.560;2023-05-21T06:38:27;16.30;99.90
58983;DHT22;44771;49.982;8.560;2023-05-21T06:43:30;16.40;99.90
58983;DHT22;44771;49.982;8.560;2023-05-21T06:48:32;16.50;99.90
58983;DHT22;44771;49.982;8.560;2023-05-21T06:53:35;16.60;99.90
58983;DHT22;44771;49.982;8.560;2023-05-21T06:58:38;16.80;99.90
58983;DHT22;44771;49.982;8.560;2023-05-21T07:03:40;17.00;99.90
58983;DHT22;44771;49.982;8.560;2023-05-21T07:08:42;17.40;99.90
58983;DHT22;44771;49.982;8.560;2023-05-21T07:13:45;17.70;99.90
58983;DHT22;44771;49.982;8.560;2023-05-21T07:18:47;17.70;99.90
58983;DHT22;44771;49.982;8.560;2023-05-21T07:23:49;17.80;99.90
58983;DHT22;44771;49.982;8.560;2023-05-21T07:28:52;17.60;99.90
58983;DHT22;44771;49.982;8.560;2023-05-21T07:33:53;17.50;99.90
58983;DHT22;44771;49.982;8.560;2023-05-21T07:38:55;17.40;99.90
58983;DHT22;44771;49.982;8.560;2023-05-21T07:43:58;17.40;99.90
58983;DHT22;44771;49.982;8.560;2023-05-21T07:49:00;17.50;99.90
58983;DHT22;44771;49.982;8.560;2023-05-21T07:54:02;17.60;99.90
58983;DHT22;44771;49.982;8.560;2023-05-21T07:59:05;17.80;99.90
58983;DHT22;44771;49.982;8.560;2023-05-21T08:04:06;18.40;99.90
58983;DHT22;44771;49.982;8.560;2023-05-21T08:09:09;19.30;99.90
58983;DHT22;44771;49.982;8.560;2023-05-21T08:14:12;19.90;99.90
58983;DHT22;44771;49.982;8.560;2023-05-21T08:19:14;20.20;99.90
58983;DHT22;44771;49.982;8.560;2023-05-21T08:24:15;20.60;99.90
58983;DHT22;44771;49.982;8.560;2023-05-21T08:29:20;20.70;99.90
58983;DHT22;44771;49.982;8.560;2023-05-21T08:34:21;20.90;99.90
58983;DHT22;44771;49.982;8.560;2023-05-21T08:39:23;21.10;99.90
58983;DHT22;44771;49.982;8.560;2023-05-21T08:44:27;21.40;99.90
58983;DHT22;44771;49.982;8.560;2023-05-21T08:49:32;21.80;99.90
58983;DHT22;44771;49.982;8.560;2023-05-21T08:54:35;22.00;99.90
58983;DHT22;44771;49.982;8.560;2023-05-21T08:59:38;22.40;99.90
58983;DHT22;44771;49.982;8.560;2023-05-21T09:04:40;22.60;99.40
58983;DHT22;44771;49.982;8.560;2023-05-21T09:09:48;22.80;99.90
58983;DHT22;44771;49.982;8.560;2023-05-21T09:14:54;23.20;99.90
58983;DHT22;44771;49.982;8.560;2023-05-21T09:20:04;23.70;98.20
58983;DHT22;44771;49.982;8.560;2023-05-21T09:25:07;23.70;97.30
58983;DHT22;44771;49.982;8.560;2023-05-21T09:30:11;23.80;99.40
58983;DHT22;44771;49.982;8.560;2023-05-21T09:35:14;23.90;99.90
58983;DHT22;44771;49.982;8.560;2023-05-21T09:40:19;24.30;97.50
58983;DHT22;44771;49.982;8.560;2023-05-21T09:45:24;24.10;98.00
58983;DHT22;44771;49.982;8.560;2023-05-21T09:50:26;24.20;97.50
58983;DHT22;44771;49.982;8.560;2023-05-21T09:55:28;24.30;96.70
58983;DHT22;44771;49.982;8.560;2023-05-21T10:00:31;24.40;96.10
58983;DHT22;44771;49.982;8.560;2023-05-21T10:05:33;24.60;95.20
58983;DHT22;44771;49.982;8.560;2023-05-21T10:10:35;24.30;96.90
58983;DHT22;44771;49.982;8.560;2023-05-21T10:15:42;24.50;96.80
58983;DHT22;44771;49.982;8.560;2023-05-21T10:20:45;24.20;94.20
58983;DHT22;44771;49.982;8.560;2023-05-21T10:25:48;24.40;95.40
58983;DHT22;44771;49.982;8.560;2023-05-21T10:30:51;24.00;95.40
58983;DHT22;44771;49.982;8.560;2023-05-21T10:35:54;24.00;95.80
58983;DHT22;44771;49.982;8.560;2023-05-21T10:40:59;24.00;96.80
58983;DHT22;44771;49.982;8.560;2023-05-21T10:51:37;24.00;92.70
58983;DHT22;44771;49.982;8.560;2023-05-21T10:56:43;23.70;96.20
58983;DHT22;44771;49.982;8.560;2023-05-21T11:01:48;23.90;97.50
58983;DHT22;44771;49.982;8.560;2023-05-21T11:06:51;24.30;96.30
58983;DHT22;44771;49.982;8.560;2023-05-21T11:11:56;24.50;97.40
58983;DHT22;44771;49.982;8.560;2023-05-21T11:17:00;25.00;96.20
58983;DHT22;44771;49.982;8.560;2023-05-21T11:22:09;25.20;92.70
58983;DHT22;44771;49.982;8.560;2023-05-21T11:27:30;25.90;94.40
58983;DHT22;44771;49.982;8.560;2023-05-21T11:32:37;26.00;93.30
58983;DHT22;44771;49.982;8.560;2023-05-21T11:37:39;26.00;88.50
58983;DHT22;44771;49.982;8.560;2023-05-21T11:42:41;26.10;86.60
58983;DHT22;44771;49.982;8.560;2023-05-21T11:47:45;26.30;85.00
58983;DHT22;44771;49.982;8.560;2023-05-21T11:52:47;26.40;87.30
58983;DHT22;44771;49.982;8.560;2023-05-21T11:57:52;26.90;83.30
58983;DHT22;44771;49.982;8.560;2023-05-21T12:02:55;27.10;78.00
58983;DHT22;44771;49.982;8.560;2023-05-21T12:07:58;26.90;80.60
58983;DHT22;44771;49.982;8.560;2023-05-21T12:13:00;26.80;80.10
58983;DHT22;44771;49.982;8.560;2023-05-21T12:18:03;26.70;81.40
58983;DHT22;44771;49.982;8.560;2023-05-21T12:23:05;26.70;79.90
58983;DHT22;44771;49.982;8.560;2023-05-21T12:28:07;26.80;79.30
58983;DHT22;44771;49.982;8.560;2023-05-21T12:33:10;27.10;78.40
58983;DHT22;44771;49.982;8.560;2023-05-21T12:38:11;27.40;74.80
58983;DHT22;44771;49.982;8.560;2023-05-21T12:43:13;26.90;71.80
58983;DHT22;44771;49.982;8.560;2023-05-21T12:48:16;26.70;71.80
58983;DHT22;44771;49.982;8.560;2023-05-21T12:53:19;27.00;72.90
58983;DHT22;44771;49.982;8.560;2023-05-21T12:58:21;26.90;69.30
58983;DHT22;44771;49.982;8.560;2023-05-21T13:03:25;27.00;69.80
58983;DHT22;44771;49.982;8.560;2023-05-21T13:08:27;26.80;73.70
58983;DHT22;44771;49.982;8.560;2023-05-21T13:13:29;27.40;72.70
58983;DHT22;44771;49.982;8.560;2023-05-21T13:18:32;27.20;69.70
58983;DHT22;44771;49.982;8.560;2023-05-21T13:23:34;26.90;75.30
58983;DHT22;44771;49.982;8.560;2023-05-21T13:28:36;27.20;74.90
58983;DHT22;44771;49.982;8.560;2023-05-21T13:33:39;27.10;68.70
58983;DHT22;44771;49.982;8.560;2023-05-21T13:38:41;26.10;70.60
58983;DHT22;44771;49.982;8.560;2023-05-21T13:43:43;25.70;66.90
58983;DHT22;44771;49.982;8.560;2023-05-21T13:48:46;25.80;64.50
58983;DHT22;44771;49.982;8.560;2023-05-21T13:53:47;26.10;71.10
58983;DHT22;44771;49.982;8.560;2023-05-21T13:58:49;26.30;68.70
58983;DHT22;44771;49.982;8.560;2023-05-21T14:03:52;26.30;68.10
58983;DHT22;44771;49.982;8.560;2023-05-21T14:08:54;26.10;73.80
58983;DHT22;44771;49.982;8.560;2023-05-21T14:13:56;25.90;70.20
58983;DHT22;44771;49.982;8.560;2023-05-21T14:18:59;25.70;67.30
58983;DHT22;44771;49.982;8.560;2023-05-21T14:24:01;25.70;71.10
58983;DHT22;44771;49.982;8.560;2023-05-21T14:29:03;25.70;73.10
58983;DHT22;44771;49.982;8.560;2023-05-21T14:34:06;25.60;74.80
58983;DHT22;44771;49.982;8.560;2023-05-21T14:39:07;25.70;77.00
58983;DHT22;44771;49.982;8.560;2023-05-21T14:44:09;25.50;77.20
58983;DHT22;44771;49.982;8.560;2023-05-21T14:49:12;25.40;74.00
58983;DHT22;44771;49.982;8.560;2023-05-21T14:54:14;25.40;77.50
58983;DHT22;44771;49.982;8.560;2023-05-21T14:59:16;25.50;80.10
58983;DHT22;44771;49.982;8.560;2023-05-21T15:04:19;25.50;76.40
58983;DHT22;44771;49.982;8.560;2023-05-21T15:09:21;25.50;76.70
58983;DHT22;44771;49.982;8.560;2023-05-21T15:14:23;25.40;78.80
58983;DHT22;44771;49.982;8.560;2023-05-21T15:19:26;25.50;76.70
58983;DHT22;44771;49.982;8.560;2023-05-21T15:24:28;25.60;78.70
58983;DHT22;44771;49.982;8.560;2023-05-21T15:29:29;25.80;78.80
58983;DHT22;44771;49.982;8.560;2023-05-21T15:34:33;25.80;83.20
58983;DHT22;44771;49.982;8.560;2023-05-21T15:39:35;25.80;78.50
58983;DHT22;44771;49.982;8.560;2023-05-21T15:44:37;26.00;72.60
58983;DHT22;44771;49.982;8.560;2023-05-21T15:49:40;25.90;75.70
58983;DHT22;44771;49.982;8.560;2023-05-21T15:54:42;26.00;73.00
58983;DHT22;44771;49.982;8.560;2023-05-21T15:59:44;26.00;74.30
58983;DHT22;44771;49.982;8.560;2023-05-21T16:04:47;26.00;76.80
58983;DHT22;44771;49.982;8.560;2023-05-21T16:09:49;26.00;77.10
58983;DHT22;44771;49.982;8.560;2023-05-21T16:14:50;26.10;74.00
58983;DHT22;44771;49.982;8.560;2023-05-21T16:19:54;26.10;73.00
58983;DHT22;44771;49.982;8.560;2023-05-21T16:24:55;26.30;65.90
58983;DHT22;44771;49.982;8.560;2023-05-21T16:29:57;26.40;66.60
58983;DHT22;44771;49.982;8.560;2023-05-21T16:35:00;26.30;75.10
58983;DHT22;44771;49.982;8.560;2023-05-21T16:40:02;26.20;64.60
58983;DHT22;44771;49.982;8.560;2023-05-21T16:45:05;26.10;70.60
58983;DHT22;44771;49.982;8.560;2023-05-21T16:50:09;26.10;69.40
58983;DHT22;44771;49.982;8.560;2023-05-21T16:55:11;26.10;67.40
58983;DHT22;44771;49.982;8.560;2023-05-21T17:00:13;26.00;67.10
58983;DHT22;44771;49.982;8.560;2023-05-21T17:05:17;25.90;71.30
58983;DHT22;44771;49.982;8.560;2023-05-21T17:10:19;25.80;65.80
58983;DHT22;44771;49.982;8.560;2023-05-21T17:15:20;25.70;67.80
58983;DHT22;44771;49.982;8.560;2023-05-21T17:20:24;25.70;66.20
58983;DHT22;44771;49.982;8.560;2023-05-21T17:25:25;25.60;64.40
58983;DHT22;44771;49.982;8.560;2023-05-21T17:30:30;25.40;69.90
58983;DHT22;44771;49.982;8.560;2023-05-21T17:35:33;25.20;70.60
58983;DHT22;44771;49.982;8.560;2023-05-21T17:40:35;25.10;66.80
58983;DHT22;44771;49.982;8.560;2023-05-21T17:45:37;25.00;68.30
58983;DHT22;44771;49.982;8.560;2023-05-21T17:50:41;24.90;67.90
58983;DHT22;44771;49.982;8.560;2023-05-21T17:55:43;24.70;70.40
58983;DHT22;44771;49.982;8.560;2023-05-21T18:00:44;24.70;69.00
58983;DHT22;44771;49.982;8.560;2023-05-21T18:05:48;24.60;67.70
58983;DHT22;44771;49.982;8.560;2023-05-21T18:10:50;24.60;66.70
58983;DHT22;44771;49.982;8.560;2023-05-21T18:15:51;24.40;68.70
58983;DHT22;44771;49.982;8.560;2023-05-21T18:20:55;24.20;67.30
58983;DHT22;44771;49.982;8.560;2023-05-21T18:25:56;24.20;67.00
58983;DHT22;44771;49.982;8.560;2023-05-21T18:30:59;23.90;76.00
58983;DHT22;44771;49.982;8.560;2023-05-21T18:36:02;23.50;83.70
58983;DHT22;44771;49.982;8.560;2023-05-21T18:41:04;23.10;86.60
58983;DHT22;44771;49.982;8.560;2023-05-21T18:46:06;22.60;92.40
58983;DHT22;44771;49.982;8.560;2023-05-21T18:51:10;22.10;93.90
58983;DHT22;44771;49.982;8.560;2023-05-21T18:56:11;21.80;97.90
58983;DHT22;44771;49.982;8.560;2023-05-21T19:01:13;21.10;99.90
58983;DHT22;44771;49.982;8.560;2023-05-21T19:06:16;20.70;99.90
58983;DHT22;44771;49.982;8.560;2023-05-21T19:11:18;20.50;99.90
58983;DHT22;44771;49.982;8.560;2023-05-21T19:16:20;20.30;99.90
58983;DHT22;44771;49.982;8.560;2023-05-21T19:21:23;20.00;99.90
58983;DHT22;44771;49.982;8.560;2023-05-21T19:26:25;19.50;99.90
58983;DHT22;44771;49.982;8.560;2023-05-21T19:31:27;19.10;99.90
58983;DHT22;44771;49.982;8.560;2023-05-21T19:36:30;18.80;99.90
58983;DHT22;44771;49.982;8.560;2023-05-21T19:41:49;18.60;99.90
58983;DHT22;44771;49.982;8.560;2023-05-21T19:46:51;18.20;99.90
58983;DHT22;44771;49.982;8.560;2023-05-21T19:51:54;18.10;99.90
58983;DHT22;44771;49.982;8.560;2023-05-21T19:56:56;17.80;99.90
58983;DHT22;44771;49.982;8.560;2023-05-21T20:01:58;17.50;99.90
58983;DHT22;44771;49.982;8.560;2023-05-21T20:07:01;17.40;99.90
58983;DHT22;44771;49.982;8.560;2023-05-21T20:12:03;17.20;99.90
58983;DHT22;44771;49.982;8.560;2023-05-21T20:17:05;17.00;99.90
58983;DHT22;44771;49.982;8.560;2023-05-21T20:22:08;16.80;99.90
58983;DHT22;44771;49.982;8.560;2023-05-21T20:27:10;16.50;99.90
58983;DHT22;44771;49.982;8.560;2023-05-21T20:32:12;16.30;99.90
58983;DHT22;44771;49.982;8.560;2023-05-21T20:37:15;16.20;99.90
58983;DHT22;44771;49.982;8.560;2023-05-21T20:42:17;16.10;99.90
58983;DHT22;44771;49.982;8.560;2023-05-21T20:47:19;16.10;99.90
58983;DHT22;44771;49.982;8.560;2023-05-21T20:52:22;15.90;99.90
58983;DHT22;44771;49.982;8.560;2023-05-21T20:57:25;15.90;99.90
58983;DHT22;44771;49.982;8.560;2023-05-21T21:02:27;15.90;99.90
58983;DHT22;44771;49.982;8.560;2023-05-21T21:07:30;15.60;99.90
58983;DHT22;44771;49.982;8.560;2023-05-21T21:12:32;15.60;99.90
58983;DHT22;44771;49.982;8.560;2023-05-21T21:17:34;15.50;99.90
58983;DHT22;44771;49.982;8.560;2023-05-21T21:22:37;15.20;99.90
58983;DHT22;44771;49.982;8.560;2023-05-21T21:27:39;15.10;99.90
58983;DHT22;44771;49.982;8.560;2023-05-21T21:32:41;15.10;99.90
58983;DHT22;44771;49.982;8.560;2023-05-21T21:37:44;15.00;99.90
58983;DHT22;44771;49.982;8.560;2023-05-21T21:42:46;15.20;99.90
58983;DHT22;44771;49.982;8.560;2023-05-21T21:47:48;15.00;99.90
58983;DHT22;44771;49.982;8.560;2023-05-21T21:52:51;14.90;99.90
58983;DHT22;44771;49.982;8.560;2023-05-21T21:57:53;14.90;99.90
58983;DHT22;44771;49.982;8.560;2023-05-21T22:02:55;14.70;99.90
58983;DHT22;44771;49.982;8.560;2023-05-21T22:07:58;14.60;99.90
58983;DHT22;44771;49.982;8.560;2023-05-21T22:13:00;14.50;99.90
58983;DHT22;44771;49.982;8.560;2023-05-21T22:18:01;14.40;99.90
58983;DHT22;44771;49.982;8.560;2023-05-21T22:23:05;14.30;99.90
58983;DHT22;44771;49.982;8.560;2023-05-21T22:28:06;14.30;99.90
58983;DHT22;44771;49.982;8.560;2023-05-21T22:33:08;14.20;99.90
58983;DHT22;44771;49.982;8.560;2023-05-21T22:38:11;14.20;99.90
58983;DHT22;44771;49.982;8.560;2023-05-21T22:43:13;14.00;99.90
58983;DHT22;44771;49.982;8.560;2023-05-21T22:48:15;14.00;99.90
58983;DHT22;44771;49.982;8.560;2023-05-21T22:53:18;13.90;99.90
58983;DHT22;44771;49.982;8.560;2023-05-21T22:58:20;13.90;99.90
58983;DHT22;44771;49.982;8.560;2023-05-21T23:03:21;13.90;99.90
58983;DHT22;44771;49.982;8.560;2023-05-21T23:08:25;13.80;99.90
58983;DHT22;44771;49.982;8.560;2023-05-21T23:13:28;13.90;99.90
58983;DHT22;44771;49.982;8.560;2023-05-21T23:18:30;13.80;99.90
58983;DHT22;44771;49.982;8.560;2023-05-21T23:23:33;13.90;99.90
58983;DHT22;44771;49.982;8.560;2023-05-21T23:28:35;13.90;99.90
58983;DHT22;44771;49.982;8.560;2023-05-21T23:33:37;13.90;99.90
58983;DHT22;44771;49.982;8.560;2023-05-21T23:38:40;13.90;99.90
58983;DHT22;44771;49.982;8.560;2023-05-21T23:43:41;13.90;99.90
58983;DHT22;44771;49.982;8.560;2023-05-21T23:48:43;14.00;99.90
58983;DHT22;44771;49.982;8.560;2023-05-21T23:53:47;14.00;99.90
58983;DHT22;44771;49.982;8.560;2023-05-21T23:58:48;13.90;99.90
